Jones Brook, Vermont
Current Conditions -  °F | °C
As of 11:51 PM on Sunday 19 Oct 2014 (Local Time) from KMPV Reporting Station
Overcast Overcast  
Wind Chill: 35°   Ceiling: 4200
Heat Index: 35°   Visibility: 10mi
Dew Point: 24°   Wind: 3mph
Humidity: 64%   Direction: NA
Pressure: 29.98"   Gusts: NA
Location:  44.2861°N, 72.6004°W
Report Text: KMPV 200351Z AUTO VRB03KT 10SM OVC042 02/M04 A2998 RMK AO2 SLP163 T00171044 $
Loading
Personal Weather Stations






























Interactive Weather Map
Tropical Storm Tracking
New forecast layout! Learn more

10-Day Weather Forecast

Advertisements
Track Severe Weather on mobile